![]() |
EMODnet Physics ERDDAP
Easier access to scientific data |
log in|
Brought to you by EMODnet Physics |
| Dataset Title: | NDBC - Collection of dew point temperature (DEWT) TimeSeries - IN SITU MultiPointTimeSeriesObservation
|
| Institution: | NDBC (Dataset ID: TS_DEWT_NDBC) |
| Information: | Summary
| License
| FGDC
| ISO 19115
| Metadata
| Background
| Subset
| Data Access Form
| Make a graph
|
| Name | Last modified | Size | Description | |
|---|---|---|---|---|
| Parent Directory | - | - | ||
| MRYA2_TS_DEWT_012013.nc | 24-Dec-2024 12:36 | 450282 | ||
| MRYA2_TS_DEWT_012014.nc | 24-Dec-2024 12:37 | 451112 | ||
| MRYA2_TS_DEWT_012015.nc | 24-Dec-2024 12:39 | 450433 | ||
| MRYA2_TS_DEWT_012016.nc | 24-Dec-2024 12:40 | 442616 | ||
| MRYA2_TS_DEWT_012017.nc | 24-Dec-2024 12:42 | 619836 | ||
| MRYA2_TS_DEWT_012019.nc | 24-Dec-2024 12:45 | 654208 | ||
| MRYA2_TS_DEWT_012020.nc | 24-Dec-2024 12:49 | 657440 | ||
| MRYA2_TS_DEWT_012021.nc | 24-Dec-2024 12:52 | 464948 | ||
| MRYA2_TS_DEWT_012022.nc | 24-Dec-2024 12:56 | 660567 | ||
| MRYA2_TS_DEWT_012023.nc | 24-Dec-2024 12:59 | 652701 | ||
| MRYA2_TS_DEWT_012025.nc | 07-Feb-2025 10:40 | 653895 | ||
| MRYA2_TS_DEWT_012026.nc | 02-Feb-2026 17:03 | 4625074 | ||
| MRYA2_TS_DEWT_022013.nc | 24-Dec-2024 12:36 | 5103089 | ||
| MRYA2_TS_DEWT_022014.nc | 24-Dec-2024 12:37 | 429815 | ||
| MRYA2_TS_DEWT_022015.nc | 24-Dec-2024 12:39 | 451878 | ||
| MRYA2_TS_DEWT_022019.nc | 24-Dec-2024 12:45 | 451356 | ||
| MRYA2_TS_DEWT_022020.nc | 24-Dec-2024 12:49 | 452709 | ||
| MRYA2_TS_DEWT_022021.nc | 24-Dec-2024 12:52 | 451385 | ||
| MRYA2_TS_DEWT_022022.nc | 24-Dec-2024 12:56 | 453146 | ||
| MRYA2_TS_DEWT_022023.nc | 24-Dec-2024 13:00 | 452618 | ||
| MRYA2_TS_DEWT_022025.nc | 01-Mar-2025 05:42 | 453214 | ||
| MRYA2_TS_DEWT_022026.nc | 01-Mar-2026 05:49 | 454042 | ||
| MRYA2_TS_DEWT_032013.nc | 24-Dec-2024 12:36 | 642754 | ||
| MRYA2_TS_DEWT_032014.nc | 24-Dec-2024 12:37 | 657448 | ||
| MRYA2_TS_DEWT_032015.nc | 24-Dec-2024 12:39 | 660418 | ||
| MRYA2_TS_DEWT_032019.nc | 24-Dec-2024 12:46 | 643416 | ||
| MRYA2_TS_DEWT_032020.nc | 24-Dec-2024 12:49 | 662945 | ||
| MRYA2_TS_DEWT_032021.nc | 24-Dec-2024 12:53 | 659768 | ||
| MRYA2_TS_DEWT_032022.nc | 24-Dec-2024 12:56 | 652568 | ||
| MRYA2_TS_DEWT_032023.nc | 24-Dec-2024 13:00 | 4948838 | ||
| MRYA2_TS_DEWT_032025.nc | 02-Apr-2025 04:14 | 5004018 | ||
| MRYA2_TS_DEWT_032026.nc | 26-Mar-2026 06:50 | 441775 | ||
| MRYA2_TS_DEWT_042013.nc | 24-Dec-2024 12:36 | 442133 | ||
| MRYA2_TS_DEWT_042014.nc | 24-Dec-2024 12:37 | 442882 | ||
| MRYA2_TS_DEWT_042015.nc | 24-Dec-2024 12:39 | 448161 | ||
| MRYA2_TS_DEWT_042016.nc | 24-Dec-2024 12:40 | 445802 | ||
| MRYA2_TS_DEWT_042019.nc | 24-Dec-2024 12:46 | 447127 | ||
| MRYA2_TS_DEWT_042020.nc | 24-Dec-2024 12:49 | 447916 | ||
| MRYA2_TS_DEWT_042021.nc | 24-Dec-2024 12:53 | 439157 | ||
| MRYA2_TS_DEWT_042022.nc | 24-Dec-2024 12:57 | 427067 | ||
| MRYA2_TS_DEWT_042023.nc | 24-Dec-2024 13:00 | 435240 | ||
| MRYA2_TS_DEWT_042025.nc | 01-May-2025 06:15 | 441814 | ||
| MRYA2_TS_DEWT_052013.nc | 24-Dec-2024 12:36 | 425044 | ||
| MRYA2_TS_DEWT_052014.nc | 24-Dec-2024 12:38 | 442240 | ||
| MRYA2_TS_DEWT_052015.nc | 24-Dec-2024 12:39 | 1651151 | ||
| MRYA2_TS_DEWT_052016.nc | 24-Dec-2024 12:40 | 1837417 | ||
| MRYA2_TS_DEWT_052018.nc | 24-Dec-2024 12:43 | 4682872 | ||
| MRYA2_TS_DEWT_052019.nc | 24-Dec-2024 12:46 | 3713509 | ||
| MRYA2_TS_DEWT_052020.nc | 24-Dec-2024 12:50 | 1657266 | ||
| MRYA2_TS_DEWT_052021.nc | 24-Dec-2024 12:53 | 1658882 | ||
| MRYA2_TS_DEWT_052022.nc | 24-Dec-2024 12:57 | 3181270 | ||
| MRYA2_TS_DEWT_052023.nc | 24-Dec-2024 13:01 | 4896564 | ||
| MRYA2_TS_DEWT_052025.nc | 01-Jun-2025 08:32 | 1831504 | ||
| MRYA2_TS_DEWT_062013.nc | 24-Dec-2024 12:36 | 1837914 | ||
| MRYA2_TS_DEWT_062014.nc | 24-Dec-2024 12:38 | 4261989 | ||
| MRYA2_TS_DEWT_062015.nc | 24-Dec-2024 12:39 | 3485381 | ||
| MRYA2_TS_DEWT_062016.nc | 24-Dec-2024 12:40 | 1676726 | ||
| MRYA2_TS_DEWT_062019.nc | 24-Dec-2024 12:47 | 1673969 | ||
| MRYA2_TS_DEWT_062020.nc | 24-Dec-2024 12:50 | 4568338 | ||
| MRYA2_TS_DEWT_062021.nc | 24-Dec-2024 12:54 | 1831264 | ||
| MRYA2_TS_DEWT_062022.nc | 24-Dec-2024 12:57 | 1831925 | ||
| MRYA2_TS_DEWT_062023.nc | 24-Dec-2024 13:01 | 5343294 | ||
| MRYA2_TS_DEWT_062025.nc | 01-Jul-2025 05:51 | 1675398 | ||
| MRYA2_TS_DEWT_072013.nc | 24-Dec-2024 12:36 | 1671922 | ||
| MRYA2_TS_DEWT_072014.nc | 24-Dec-2024 12:38 | 5321339 | ||
| MRYA2_TS_DEWT_072015.nc | 24-Dec-2024 12:39 | 1832956 | ||
| MRYA2_TS_DEWT_072016.nc | 24-Dec-2024 12:41 | 1828886 | ||
| MRYA2_TS_DEWT_072019.nc | 24-Dec-2024 12:47 | 4912384 | ||
| MRYA2_TS_DEWT_072020.nc | 24-Dec-2024 12:50 | 1834062 | ||
| MRYA2_TS_DEWT_072021.nc | 24-Dec-2024 12:54 | 1832941 | ||
| MRYA2_TS_DEWT_072022.nc | 24-Dec-2024 12:58 | 5440246 | ||
| MRYA2_TS_DEWT_072023.nc | 24-Dec-2024 13:01 | 1676796 | ||
| MRYA2_TS_DEWT_072025.nc | 01-Aug-2025 06:00 | 1678134 | ||
| MRYA2_TS_DEWT_082013.nc | 24-Dec-2024 12:37 | 4930222 | ||
| MRYA2_TS_DEWT_082014.nc | 24-Dec-2024 12:38 | 1750341 | ||
| MRYA2_TS_DEWT_082016.nc | 24-Dec-2024 12:41 | 1834822 | ||
| MRYA2_TS_DEWT_082019.nc | 24-Dec-2024 12:47 | 5321644 | ||
| MRYA2_TS_DEWT_082020.nc | 24-Dec-2024 12:51 | 1680873 | ||
| MRYA2_TS_DEWT_082021.nc | 24-Dec-2024 12:54 | 1679018 | ||
| MRYA2_TS_DEWT_082022.nc | 24-Dec-2024 12:58 | 4158921 | ||
| MRYA2_TS_DEWT_082023.nc | 24-Dec-2024 13:02 | 5768047 | ||
| MRYA2_TS_DEWT_082025.nc | 01-Sep-2025 07:30 | 1674523 | ||
| MRYA2_TS_DEWT_092013.nc | 24-Dec-2024 12:37 | 1656901 | ||
| MRYA2_TS_DEWT_092014.nc | 24-Dec-2024 12:38 | 5831433 | ||
| MRYA2_TS_DEWT_092016.nc | 24-Dec-2024 12:41 | 5069402 | ||
| MRYA2_TS_DEWT_092019.nc | 24-Dec-2024 12:47 | 429652 | ||
| MRYA2_TS_DEWT_092020.nc | 24-Dec-2024 12:51 | 429223 | ||
| MRYA2_TS_DEWT_092021.nc | 24-Dec-2024 12:54 | 429657 | ||
| MRYA2_TS_DEWT_092022.nc | 24-Dec-2024 12:58 | 429663 | ||
| MRYA2_TS_DEWT_092023.nc | 24-Dec-2024 13:02 | 427836 | ||
| MRYA2_TS_DEWT_092025.nc | 01-Oct-2025 07:50 | 429675 | ||
| MRYA2_TS_DEWT_102013.nc | 24-Dec-2024 12:37 | 450897 | ||
| MRYA2_TS_DEWT_102014.nc | 24-Dec-2024 12:38 | 429669 | ||
| MRYA2_TS_DEWT_102019.nc | 24-Dec-2024 12:48 | 429640 | ||
| MRYA2_TS_DEWT_102020.nc | 24-Dec-2024 12:51 | 451568 | ||
| MRYA2_TS_DEWT_102021.nc | 24-Dec-2024 12:55 | 448936 | ||
| MRYA2_TS_DEWT_102022.nc | 24-Dec-2024 12:58 | 450524 | ||
| MRYA2_TS_DEWT_102023.nc | 24-Dec-2024 13:02 | 448436 | ||
| MRYA2_TS_DEWT_102025.nc | 01-Nov-2025 06:50 | 451017 | ||
| MRYA2_TS_DEWT_112012.nc | 24-Dec-2024 12:35 | 448981 | ||
| MRYA2_TS_DEWT_112013.nc | 24-Dec-2024 12:37 | 450226 | ||
| MRYA2_TS_DEWT_112014.nc | 24-Dec-2024 12:38 | 449877 | ||
| MRYA2_TS_DEWT_112015.nc | 24-Dec-2024 12:39 | 451239 | ||
| MRYA2_TS_DEWT_112016.nc | 24-Dec-2024 12:41 | 450278 | ||
| MRYA2_TS_DEWT_112019.nc | 24-Dec-2024 12:48 | 450410 | ||
| MRYA2_TS_DEWT_112020.nc | 24-Dec-2024 12:52 | 450472 | ||
| MRYA2_TS_DEWT_112021.nc | 24-Dec-2024 12:55 | 429887 | ||
| MRYA2_TS_DEWT_112022.nc | 24-Dec-2024 12:59 | 450926 | ||
| MRYA2_TS_DEWT_112023.nc | 24-Dec-2024 13:03 | 451520 | ||
| MRYA2_TS_DEWT_112024.nc | 17-Jan-2025 18:47 | 438677 | ||
| MRYA2_TS_DEWT_112025.nc | 01-Dec-2025 10:36 | 450295 | ||
| MRYA2_TS_DEWT_122012.nc | 24-Dec-2024 12:36 | 450482 | ||
| MRYA2_TS_DEWT_122013.nc | 24-Dec-2024 12:37 | 450048 | ||
| MRYA2_TS_DEWT_122014.nc | 24-Dec-2024 12:38 | 429871 | ||
| MRYA2_TS_DEWT_122015.nc | 24-Dec-2024 12:40 | 450594 | ||
| MRYA2_TS_DEWT_122016.nc | 24-Dec-2024 12:41 | 450619 | ||
| MRYA2_TS_DEWT_122018.nc | 24-Dec-2024 12:45 | 450954 | ||
| MRYA2_TS_DEWT_122019.nc | 24-Dec-2024 12:48 | 451083 | ||
| MRYA2_TS_DEWT_122020.nc | 24-Dec-2024 12:52 | 450755 | ||
| MRYA2_TS_DEWT_122021.nc | 24-Dec-2024 12:55 | 450264 | ||
| MRYA2_TS_DEWT_122022.nc | 24-Dec-2024 12:59 | 450750 | ||
| MRYA2_TS_DEWT_122023.nc | 24-Dec-2024 13:03 | 429883 | ||
| MRYA2_TS_DEWT_122024.nc | 22-Jan-2025 19:10 | 429891 | ||
| MRYA2_TS_DEWT_122025.nc | 01-Jan-2026 05:02 | 451874 | ||